createdAt,value
2022-08-09T00:01:56.049Z,11.10
2022-08-09T00:12:03.629Z,11.90
2022-08-09T00:22:08.175Z,12.60
2022-08-09T00:32:14.005Z,12.80
2022-08-09T00:44:15.219Z,13.50
2022-08-09T00:52:52.399Z,13.40
2022-08-09T01:03:07.936Z,14.00
2022-08-09T01:13:42.007Z,14.90
2022-08-09T01:24:06.135Z,15.20
2022-08-09T01:34:10.598Z,15.10
2022-08-09T01:44:17.316Z,15.10
2022-08-09T01:54:24.077Z,16.60
2022-08-09T02:04:27.036Z,15.10
2022-08-09T02:14:31.315Z,15.70
2022-08-09T02:24:39.513Z,16.70
2022-08-09T02:34:51.740Z,16.80
2022-08-09T02:45:17.581Z,17.60
2022-08-09T02:55:21.490Z,16.90
2022-08-09T03:05:23.957Z,19.10
2022-08-09T03:16:04.457Z,18.30
2022-08-09T03:25:58.582Z,18.70
2022-08-09T03:36:15.678Z,18.90
2022-08-09T03:46:27.283Z,20.40
2022-08-09T03:56:33.236Z,20.50
2022-08-09T04:06:38.698Z,21.00
2022-08-09T04:16:47.058Z,22.70
2022-08-09T04:26:49.839Z,23.00
2022-08-09T04:36:52.138Z,21.50
2022-08-09T04:46:59.421Z,23.90
2022-08-09T04:57:10.176Z,24.50
2022-08-09T05:07:19.362Z,23.50
2022-08-09T05:18:38.008Z,23.70
2022-08-09T05:27:48.049Z,24.60
2022-08-09T05:37:50.923Z,24.30
2022-08-09T05:47:56.819Z,23.20
2022-08-09T05:58:04.237Z,21.90
2022-08-09T06:08:11.056Z,21.20
2022-08-09T06:18:13.276Z,19.50
2022-08-09T06:28:18.358Z,16.40
2022-08-09T06:38:37.208Z,17.90
2022-08-09T06:48:43.382Z,15.30
2022-08-09T07:00:52.914Z,15.60
2022-08-09T07:09:07.136Z,14.10
2022-08-09T07:19:29.480Z,13.30
2022-08-09T07:29:38.130Z,12.00
2022-08-09T07:39:46.441Z,9.90
2022-08-09T07:50:05.283Z,7.70
2022-08-09T08:00:11.883Z,6.50
2022-08-09T08:10:27.266Z,5.10
2022-08-09T08:20:33.373Z,3.90
2022-08-09T08:30:35.521Z,5.60
2022-08-09T08:40:38.419Z,3.40
2022-08-09T08:50:41.779Z,3.60
2022-08-09T09:01:00.085Z,1.90
2022-08-09T09:11:13.660Z,3.20
2022-08-09T09:21:26.307Z,1.00
2022-08-09T09:32:04.421Z,1.40
2022-08-09T09:41:57.315Z,1.00
2022-08-09T09:52:16.677Z,1.00
2022-08-09T10:02:48.578Z,1.00
2022-08-09T10:12:57.551Z,1.00
2022-08-09T10:23:16.938Z,1.00
2022-08-09T10:34:04.267Z,1.00
2022-08-09T10:44:01.265Z,1.00
2022-08-09T10:54:16.077Z,1.00
2022-08-09T11:04:30.540Z,1.00
2022-08-09T11:14:38.081Z,1.00
2022-08-09T11:25:01.260Z,1.00
2022-08-09T11:35:15.097Z,1.00
2022-08-09T11:45:42.465Z,1.00
2022-08-09T11:55:53.967Z,1.00
2022-08-09T12:06:13.038Z,1.00
2022-08-09T12:16:40.156Z,1.00
2022-08-09T12:28:58.182Z,1.00
2022-08-09T12:37:21.595Z,1.00
2022-08-09T12:47:28.855Z,1.00
2022-08-09T12:57:48.998Z,1.00
2022-08-09T13:08:16.859Z,1.00
2022-08-09T13:18:27.307Z,1.00
2022-08-09T13:28:34.718Z,1.00
2022-08-09T13:38:55.886Z,1.00
2022-08-09T13:48:59.960Z,1.00
2022-08-09T13:59:03.025Z,1.00
2022-08-09T14:09:05.245Z,1.00
2022-08-09T14:19:07.558Z,1.00
2022-08-09T14:30:15.227Z,1.00
2022-08-09T14:39:47.372Z,1.00
2022-08-09T14:50:02.181Z,1.00
2022-08-09T15:00:07.639Z,1.00
2022-08-09T15:10:14.116Z,1.00
2022-08-09T15:21:57.686Z,1.00
2022-08-09T15:30:58.707Z,1.00
2022-08-09T15:41:09.645Z,1.00
2022-08-09T15:51:44.226Z,1.00
2022-08-09T16:01:37.006Z,1.00
2022-08-09T16:11:40.727Z,1.00
2022-08-09T16:21:51.916Z,1.00
2022-08-09T16:32:19.899Z,1.70
2022-08-09T16:42:23.718Z,1.00
2022-08-09T16:52:26.559Z,1.00
2022-08-09T17:02:32.142Z,1.00
2022-08-09T17:12:34.577Z,1.00
2022-08-09T17:22:37.755Z,1.00
2022-08-09T17:32:53.139Z,1.00
2022-08-09T17:42:59.437Z,1.00
2022-08-09T17:53:19.501Z,1.00
2022-08-09T18:03:28.641Z,1.30
2022-08-09T18:13:39.445Z,1.50
2022-08-09T18:24:11.587Z,1.00
2022-08-09T18:34:08.498Z,2.90
2022-08-09T18:44:13.519Z,3.50
2022-08-09T18:54:20.126Z,3.50
2022-08-09T19:04:34.863Z,3.80
2022-08-09T19:14:39.417Z,5.90
2022-08-09T19:25:07.208Z,6.80
2022-08-09T19:35:11.402Z,6.20
2022-08-09T19:45:13.520Z,8.00
2022-08-09T19:55:15.881Z,7.90
2022-08-09T20:05:25.017Z,8.50
2022-08-09T20:16:34.930Z,9.80
2022-08-09T20:25:53.330Z,10.40
2022-08-09T20:35:56.717Z,9.10
2022-08-09T20:46:33.990Z,9.90
2022-08-09T20:56:27.802Z,7.70
2022-08-09T21:06:32.976Z,7.80
2022-08-09T21:16:38.064Z,7.80
2022-08-09T21:26:40.335Z,7.70
2022-08-09T21:36:55.207Z,7.60
2022-08-09T21:46:58.821Z,7.60
2022-08-09T21:57:25.518Z,7.30
2022-08-09T22:07:39.854Z,7.10
2022-08-09T22:17:46.118Z,6.90
2022-08-09T22:27:48.681Z,6.50
2022-08-09T22:38:06.754Z,6.80
2022-08-09T22:48:35.256Z,6.60
2022-08-09T22:58:34.418Z,6.30
2022-08-09T23:08:48.813Z,5.40
2022-08-09T23:18:51.078Z,5.80
2022-08-09T23:28:53.137Z,5.40
2022-08-09T23:38:54.943Z,5.70
2022-08-09T23:48:56.857Z,5.90
2022-08-09T23:58:58.657Z,5.10
